Time;durP1;ratioP1;P1;durP2;ratioP2;P2;SDS_P1;SDS_P2;PMS_P1;PMS_P2;Temp;Humidity;BMP_temperature;BMP_pressure;BME280_temperature;BME280_humidity;BME280_pressure;Samples;Min_cycle;Max_cycle;Signal;HPM_P1;HPM_P2
2022/06/09 00:02:29;;;;;;;3.37;3.10;;;;;14.50;96008.00;;;;5029056;28;20211;-85
2022/06/09 00:05:18;;;;;;;3.53;3.00;;;;;14.60;96007.00;;;;5027961;28;20201;-83
2022/06/09 00:08:09;;;;;;;6.50;2.90;;;;;14.60;95997.00;;;;5030719;28;20206;-84
2022/06/09 00:11:04;;;;;;;5.33;2.80;;;;;14.70;96002.00;;;;5026881;28;20221;-84
2022/06/09 00:13:53;;;;;;;3.60;3.00;;;;;14.80;96000.00;;;;5029991;28;20221;-86
2022/06/09 00:16:43;;;;;;;3.37;3.07;;;;;14.90;95994.00;;;;5042213;28;20288;-87
2022/06/09 00:19:32;;;;;;;4.10;2.73;;;;;15.00;95997.00;;;;5039367;28;20236;-87
2022/06/09 00:22:21;;;;;;;3.37;3.10;;;;;15.00;95998.00;;;;5046240;28;20208;-87
2022/06/09 00:25:11;;;;;;;3.00;2.63;;;;;14.60;95988.00;;;;5044930;28;20628;-86
2022/06/09 00:28:02;;;;;;;5.53;3.13;;;;;14.60;95988.00;;;;5041348;28;20208;-87
2022/06/09 00:30:51;;;;;;;3.37;3.07;;;;;14.70;95979.00;;;;5044477;28;20221;-87
2022/06/09 00:33:40;;;;;;;5.60;2.77;;;;;14.70;95985.00;;;;5038442;28;20233;-88
2022/06/09 00:36:29;;;;;;;3.40;3.10;;;;;14.70;95981.00;;;;5036561;28;20206;-87
2022/06/09 00:39:19;;;;;;;2.73;2.50;;;;;14.80;95983.00;;;;5036754;28;20239;-88
2022/06/09 00:42:10;;;;;;;4.53;3.07;;;;;15.00;95990.00;;;;5039085;28;20209;-86
2022/06/09 00:45:29;;;;;;;2.43;2.20;;;;;15.10;95980.00;;;;5040995;28;20201;-87
2022/06/09 00:48:25;;;;;;;3.27;3.07;;;;;15.20;95978.00;;;;5043608;28;20217;-87
2022/06/09 00:51:30;;;;;;;4.03;3.07;;;13.90;99.90;15.10;95980.00;;;;5043575;28;20576;-87
2022/06/09 00:54:24;;;;;;;3.10;2.80;;;13.90;99.90;14.90;95972.00;;;;5041691;28;20233;-87
2022/06/09 00:57:18;;;;;;;4.27;3.80;;;13.80;99.90;14.60;95975.00;;;;5040360;28;20692;-86
2022/06/09 01:00:13;;;;;;;6.13;2.93;;;14.00;99.90;14.40;95956.00;;;;5038760;28;20225;-86
2022/06/09 01:03:04;;;;;;;3.80;3.20;;;13.70;99.90;14.50;95961.00;;;;5030179;28;20690;-85
2022/06/09 01:06:00;;;;;;;3.70;2.97;;;13.60;99.90;14.20;95960.00;;;;5032672;28;20205;-87
2022/06/09 01:08:55;;;;;;;6.03;2.93;;;13.50;99.90;14.00;95956.00;;;;5037122;28;20209;-85
2022/06/09 01:11:48;;;;;;;3.97;2.53;;;13.50;99.90;14.00;95954.00;;;;5042017;28;20205;-87
2022/06/09 01:14:36;;;;;;;3.50;2.33;;;13.50;99.90;13.90;95943.00;;;;5039686;28;20235;-86
2022/06/09 01:17:35;;;;;;;7.37;2.73;;;13.30;99.90;14.20;95940.00;;;;5037950;28;20205;-88
2022/06/09 01:20:39;;;;;;;4.10;3.33;;;13.30;99.90;14.30;95942.00;;;;5025875;28;20232;-88
2022/06/09 01:24:05;;;;;;;2.87;2.57;;;13.30;99.90;14.50;95947.00;;;;5039897;28;20216;-87
2022/06/09 01:27:29;;;;;;;3.00;2.77;;;13.30;99.90;14.60;95949.00;;;;5040602;28;20738;-87
2022/06/09 01:30:22;;;;;;;3.00;2.80;;;13.40;99.90;14.60;95938.00;;;;5032016;28;20225;-86
2022/06/09 01:33:22;;;;;;;3.70;3.40;;;13.40;99.90;14.60;95933.00;;;;5035538;28;20576;-85
2022/06/09 01:36:18;;;;;;;3.53;3.23;;;13.50;99.90;14.30;95937.00;;;;5038147;28;20208;-86
2022/06/09 01:39:06;;;;;;;3.23;2.93;;;13.50;99.90;14.60;95941.00;;;;5034427;28;20225;-84
2022/06/09 01:41:55;;;;;;;8.27;3.63;;;13.50;99.90;14.40;95932.00;;;;5036301;28;20205;-84
2022/06/09 01:44:44;;;;;;;5.67;2.83;;;13.50;99.90;14.60;95941.00;;;;5040972;28;20205;-89
2022/06/09 01:47:50;;;;;;;3.20;2.83;;;13.50;99.90;14.80;95934.00;;;;5039382;28;20231;-85
2022/06/09 01:50:47;;;;;;;3.50;2.57;;;13.50;99.90;14.90;95928.00;;;;5040547;28;20228;-86
2022/06/09 01:53:42;;;;;;;3.07;2.83;;;13.60;99.90;15.00;95941.00;;;;5033119;28;20209;-85
2022/06/09 01:56:36;;;;;;;7.33;3.53;;;13.60;99.90;15.20;95940.00;;;;5033503;28;20215;-86
2022/06/09 01:59:29;;;;;;;3.53;3.20;;;13.80;99.90;15.00;95944.00;;;;5031554;28;20267;-85
2022/06/09 02:02:23;;;;;;;3.03;2.60;;;13.80;99.90;15.00;95940.00;;;;5038509;28;20209;-84
2022/06/09 02:05:16;;;;;;;4.27;3.20;;;13.80;99.90;14.90;95940.00;;;;5035273;28;20201;-86
2022/06/09 02:08:14;;;;;;;2.80;2.60;;;13.80;99.90;15.00;95949.00;;;;5037283;28;20209;-87
2022/06/09 02:11:09;;;;;;;4.57;3.03;;;13.80;99.90;15.00;95940.00;;;;5034457;28;20225;-86
2022/06/09 02:13:59;;;;;;;3.20;3.00;;;13.80;99.90;15.10;95939.00;;;;5030156;28;20684;-85
2022/06/09 02:16:48;;;;;;;3.73;2.17;;;13.80;99.90;15.10;95941.00;;;;5042011;28;20209;-86
2022/06/09 02:19:38;;;;;;;3.10;2.90;;;13.90;99.90;15.10;95942.00;;;;5031686;28;20237;-86
2022/06/09 02:22:27;;;;;;;3.13;2.93;;;13.90;99.90;14.90;95946.00;;;;5038664;28;20205;-85
2022/06/09 02:25:18;;;;;;;4.33;2.90;;;13.90;99.90;15.00;95944.00;;;;5034270;28;20204;-85
2022/06/09 02:28:08;;;;;;;4.80;2.97;;;13.90;99.90;15.00;95942.00;;;;5033514;28;20213;-86
2022/06/09 02:30:57;;;;;;;2.83;2.63;;;13.90;99.90;14.90;95946.00;;;;5044054;28;20224;-88
2022/06/09 02:33:46;;;;;;;3.10;2.60;;;13.90;99.90;15.20;95944.00;;;;5035813;28;20240;-88
2022/06/09 02:36:35;;;;;;;5.33;2.70;;;13.90;99.90;15.40;95951.00;;;;5037777;28;20207;-88
2022/06/09 02:39:24;;;;;;;3.07;2.83;;;14.00;99.90;15.40;95947.00;;;;5038109;28;20221;-86
2022/06/09 02:42:15;;;;;;;3.10;2.80;;;13.90;99.90;15.50;95956.00;;;;5040160;28;20208;-89
2022/06/09 02:45:04;;;;;;;5.23;3.07;;;14.10;99.90;15.60;95952.00;;;;5042937;28;20592;-86
2022/06/09 02:47:53;;;;;;;5.40;3.00;;;14.30;99.90;15.60;95947.00;;;;5037625;28;20205;-87
2022/06/09 02:50:43;;;;;;;2.70;2.50;;;14.20;99.90;15.60;95956.00;;;;5039150;28;20247;-86
2022/06/09 02:53:32;;;;;;;2.20;2.07;;;14.20;99.90;15.50;95956.00;;;;5032135;28;20201;-86
2022/06/09 02:56:21;;;;;;;2.77;2.40;;;14.20;99.90;15.50;95954.00;;;;5032618;28;20224;-85
2022/06/09 02:59:12;;;;;;;6.43;3.40;;;14.20;99.90;15.40;95967.00;;;;5022931;28;20227;-86
2022/06/09 03:02:01;;;;;;;8.93;2.60;;;14.30;99.90;15.50;95963.00;;;;5034311;28;20208;-85
2022/06/09 03:04:50;;;;;;;4.13;2.50;;;14.20;99.90;15.50;95954.00;;;;5029778;28;20213;-87
2022/06/09 03:07:39;;;;;;;4.20;3.03;;;14.30;99.90;15.60;95962.00;;;;5030316;28;20209;-85
2022/06/09 03:10:28;;;;;;;3.37;2.97;;;14.30;99.90;15.70;95961.00;;;;5032066;28;20229;-86
2022/06/09 03:13:17;;;;;;;3.70;3.40;;;14.40;99.90;15.80;95963.00;;;;5035135;28;20201;-86
2022/06/09 03:16:09;;;;;;;4.10;2.57;;;14.40;99.90;15.70;95959.00;;;;5036415;28;20248;-85
2022/06/09 03:18:58;;;;;;;5.27;2.70;;;14.40;99.90;15.60;95956.00;;;;5026320;28;20320;-85
2022/06/09 03:21:47;;;;;;;2.60;2.27;;;14.40;99.90;15.40;95959.00;;;;5025794;28;20198;-86
2022/06/09 03:24:37;;;;;;;2.83;2.60;;;14.40;99.90;15.60;95959.00;;;;5039880;28;20205;-85
2022/06/09 03:27:26;;;;;;;2.77;2.57;;;14.40;99.90;15.70;95965.00;;;;5036808;28;20204;-85
2022/06/09 03:30:15;;;;;;;4.43;3.37;;;14.40;99.90;15.90;95972.00;;;;5034017;28;20233;-86
2022/06/09 03:33:06;;;;;;;3.97;3.00;;;14.40;99.90;16.00;95966.00;;;;5032204;28;20210;-86
2022/06/09 03:35:55;;;;;;;3.27;2.90;;;14.50;99.90;16.10;95964.00;;;;5036829;28;20731;-85
2022/06/09 03:38:44;;;;;;;5.07;3.37;;;14.50;99.90;16.20;95962.00;;;;5033768;28;20798;-86
2022/06/09 03:41:33;;;;;;;3.80;3.30;;;14.60;99.90;16.20;95960.00;;;;5036209;28;20208;-87
2022/06/09 03:44:23;;;;;;;4.63;3.10;;;14.70;99.90;16.20;95972.00;;;;5041074;28;20699;-85
2022/06/09 03:47:12;;;;;;;4.10;3.70;;;14.70;99.90;16.20;95966.00;;;;5041323;28;20209;-85
2022/06/09 03:50:03;;;;;;;3.70;2.80;;;14.70;99.90;16.20;95967.00;;;;5045046;28;20229;-88
2022/06/09 03:52:52;;;;;;;6.07;2.60;;;14.80;99.90;16.30;95973.00;;;;5039946;28;20197;-86
2022/06/09 03:55:41;;;;;;;4.00;3.20;;;14.80;99.90;16.30;95972.00;;;;5038967;28;20225;-85
2022/06/09 03:58:30;;;;;;;4.53;2.80;;;14.80;99.90;16.30;95960.00;;;;5035738;28;20201;-86
2022/06/09 04:01:18;;;;;;;3.60;3.30;;;14.80;99.90;16.40;95972.00;;;;5038995;28;20209;-85
2022/06/09 04:04:08;;;;;;;4.33;3.03;;;14.90;99.90;16.50;95965.00;;;;5042535;28;20249;-86
2022/06/09 04:06:59;;;;;;;7.73;2.60;;;14.90;99.90;16.50;95963.00;;;;5043142;28;20205;-85
2022/06/09 04:09:48;;;;;;;2.53;2.33;;;15.00;99.90;16.50;95973.00;;;;5037315;28;20229;-87
2022/06/09 04:12:37;;;;;;;2.43;2.00;;;15.00;99.90;16.40;95970.00;;;;5037325;28;20220;-85
2022/06/09 04:15:26;;;;;;;4.00;2.50;;;15.00;99.90;16.40;95966.00;;;;5040271;28;20241;-86
2022/06/09 04:18:15;;;;;;;2.33;2.10;;;15.00;99.90;16.40;95963.00;;;;5035191;28;20628;-84
2022/06/09 04:21:04;;;;;;;2.57;2.37;;;15.00;99.90;16.50;95957.00;;;;5040225;28;20223;-85
2022/06/09 04:23:55;;;;;;;9.43;2.70;;;15.10;99.90;16.50;95960.00;;;;5039025;28;20205;-84
2022/06/09 04:26:45;;;;;;;3.27;2.10;;;15.10;99.90;16.50;95966.00;;;;5039235;28;20216;-84
2022/06/09 04:29:33;;;;;;;4.67;2.60;;;15.10;99.90;16.60;95962.00;;;;5042139;28;20225;-85
2022/06/09 04:32:22;;;;;;;4.03;2.30;;;15.10;99.90;16.60;95970.00;;;;5041102;28;20212;-85
2022/06/09 04:35:12;;;;;;;4.50;1.97;;;15.10;99.90;16.60;95971.00;;;;5040719;28;20212;-85
2022/06/09 04:38:01;;;;;;;7.43;2.70;;;15.10;99.90;16.60;95975.00;;;;5035345;28;20591;-85
2022/06/09 04:40:52;;;;;;;2.70;2.27;;;15.10;99.90;16.70;95972.00;;;;5041732;28;20256;-85
2022/06/09 04:43:44;;;;;;;3.17;1.63;;;15.20;99.90;16.70;95976.00;;;;5042270;28;20597;-86
2022/06/09 04:46:33;;;;;;;1.80;1.70;;;15.20;99.90;16.70;95973.00;;;;5044206;28;20224;-86
2022/06/09 04:49:22;;;;;;;2.17;1.50;;;15.20;99.90;16.70;95980.00;;;;5031700;28;20248;-86
2022/06/09 04:52:11;;;;;;;3.27;1.87;;;15.20;99.90;16.80;95982.00;;;;5041234;28;20212;-86
2022/06/09 04:55:02;;;;;;;4.00;1.77;;;15.30;99.90;16.70;95991.00;;;;5039404;28;20202;-85
2022/06/09 04:57:52;;;;;;;4.13;2.03;;;15.30;99.90;16.70;95983.00;;;;5036481;28;20201;-85
2022/06/09 05:00:41;;;;;;;1.53;1.43;;;15.30;99.90;16.80;95986.00;;;;5044191;28;20592;-87
2022/06/09 05:03:32;;;;;;;2.30;1.67;;;15.30;99.90;16.70;95977.00;;;;5042023;28;20220;-85
2022/06/09 05:06:23;;;;;;;1.90;1.80;;;15.30;99.90;16.80;95982.00;;;;5044617;28;20201;-86
2022/06/09 05:09:12;;;;;;;1.87;1.77;;;15.40;99.90;16.80;95979.00;;;;5037323;28;20225;-86
2022/06/09 05:12:01;;;;;;;1.73;1.63;;;15.30;99.90;16.90;95980.00;;;;5036722;28;20209;-86
2022/06/09 05:14:53;;;;;;;4.57;1.33;;;15.40;99.90;16.90;95983.00;;;;5034835;28;20201;-86
2022/06/09 05:17:42;;;;;;;2.53;1.83;;;15.40;99.90;16.90;95980.00;;;;5039738;28;20211;-85
2022/06/09 05:20:32;;;;;;;1.70;1.60;;;15.40;99.90;16.70;95988.00;;;;5032835;28;20617;-86
2022/06/09 05:23:21;;;;;;;2.20;1.30;;;15.40;99.90;16.90;95977.00;;;;5032383;28;20583;-85
2022/06/09 05:26:10;;;;;;;2.73;1.73;;;15.40;99.90;17.00;95993.00;;;;5028740;28;20201;-86
2022/06/09 05:28:59;;;;;;;3.30;1.30;;;15.40;99.90;17.00;95992.00;;;;5037173;28;20723;-86
2022/06/09 05:31:50;;;;;;;1.87;1.33;;;15.50;99.90;17.10;96000.00;;;;5036734;28;20194;-86
2022/06/09 05:34:38;;;;;;;3.83;1.60;;;15.50;99.90;17.10;96001.00;;;;5045186;28;20206;-86
2022/06/09 05:44:50;;;;;;;1.43;1.33;;;15.50;99.90;17.10;95999.00;;;;5037804;28;20629;-85
2022/06/09 05:46:51;;;;;;;3.00;1.70;;;15.60;99.90;17.30;96015.00;;;;5031813;28;20586;-85
2022/06/09 05:49:40;;;;;;;2.63;1.43;;;15.70;99.90;17.40;96020.00;;;;5043101;28;20225;-86
2022/06/09 05:52:30;;;;;;;3.70;1.43;;;15.70;99.90;17.40;96016.00;;;;5040105;28;20576;-86
2022/06/09 05:55:19;;;;;;;2.37;1.53;;;15.80;99.90;17.50;96017.00;;;;5038041;28;20200;-86
2022/06/09 05:58:08;;;;;;;1.83;1.67;;;15.80;99.90;17.50;96028.00;;;;5039750;28;20219;-86
2022/06/09 06:00:58;;;;;;;1.97;1.60;;;15.90;99.90;17.60;96027.00;;;;5035588;28;20222;-86
2022/06/09 06:03:49;;;;;;;2.87;1.17;;;15.90;99.90;17.50;96029.00;;;;5030003;28;20213;-85
2022/06/09 06:06:38;;;;;;;2.43;1.47;;;16.00;99.90;17.60;96037.00;;;;5037951;28;20197;-86
2022/06/09 06:09:30;;;;;;;1.17;1.07;;;16.00;99.90;17.60;96028.00;;;;5040277;28;20236;-86
2022/06/09 06:12:20;;;;;;;2.10;1.13;;;16.00;99.90;17.40;96037.00;;;;5032127;28;20242;-87
2022/06/09 06:15:10;;;;;;;1.33;1.00;;;16.00;99.90;17.60;96043.00;;;;5027954;28;20193;-87
2022/06/09 06:18:02;;;;;;;2.60;1.60;;;16.00;99.90;17.60;96037.00;;;;5037816;28;20220;-86
2022/06/09 06:20:53;;;;;;;1.40;1.10;;;16.00;99.90;17.60;96043.00;;;;5034552;28;20225;-86
2022/06/09 06:23:42;;;;;;;4.00;1.40;;;16.10;99.90;17.70;96046.00;;;;5039583;28;20201;-86
2022/06/09 06:26:32;;;;;;;5.93;1.30;;;16.10;99.90;17.70;96041.00;;;;5039047;28;20207;-87
2022/06/09 06:29:24;;;;;;;2.40;1.17;;;16.10;99.90;17.70;96044.00;;;;5041144;28;20229;-86
2022/06/09 06:32:13;;;;;;;1.90;1.07;;;16.10;99.90;17.70;96055.00;;;;5035933;28;20205;-86
2022/06/09 06:35:03;;;;;;;0.70;0.63;;;16.20;99.90;17.50;96056.00;;;;5028338;28;20193;-86
2022/06/09 06:37:54;;;;;;;1.40;1.10;;;16.10;99.90;17.60;96051.00;;;;5028120;28;20225;-86
2022/06/09 06:40:43;;;;;;;1.10;1.00;;;16.10;99.90;17.70;96058.00;;;;5030646;28;20240;-86
2022/06/09 06:43:32;;;;;;;1.10;1.00;;;16.10;99.90;17.80;96057.00;;;;5023257;28;20214;-87
2022/06/09 06:46:21;;;;;;;1.20;1.00;;;16.20;99.90;17.70;96048.00;;;;5030214;28;20673;-87
2022/06/09 06:49:10;;;;;;;1.73;0.87;;;16.20;99.90;17.50;96045.00;;;;5032136;28;20278;-86
2022/06/09 06:51:59;;;;;;;2.70;0.80;;;16.20;99.90;17.70;96058.00;;;;5025340;28;20208;-86
2022/06/09 06:54:50;;;;;;;0.77;0.70;;;16.20;99.90;17.70;96053.00;;;;5033133;28;20244;-86
2022/06/09 06:57:39;;;;;;;1.17;0.90;;;16.20;99.90;17.70;96047.00;;;;5029890;28;20229;-86
2022/06/09 07:00:28;;;;;;;2.60;0.80;;;16.20;99.90;17.80;96054.00;;;;5030982;28;20243;-86
2022/06/09 07:03:17;;;;;;;4.23;0.80;;;16.20;99.90;17.70;96063.00;;;;5027582;28;20212;-84
2022/06/09 07:06:15;;;;;;;0.80;0.80;;;16.20;99.90;17.70;96064.00;;;;5028857;28;20684;-85
2022/06/09 07:09:04;;;;;;;1.47;1.07;;;16.20;99.90;17.70;96067.00;;;;5031448;28;20215;-89
2022/06/09 07:11:55;;;;;;;0.90;0.70;;;16.20;99.90;17.60;96063.00;;;;5023694;28;20668;-86
2022/06/09 07:14:44;;;;;;;1.83;1.00;;;16.20;99.90;17.50;96059.00;;;;5029823;28;20570;-86
2022/06/09 07:17:33;;;;;;;1.07;0.83;;;16.10;99.90;17.60;96078.00;;;;5031563;28;20572;-87
2022/06/09 07:20:22;;;;;;;4.03;0.80;;;16.10;99.90;17.60;96072.00;;;;5031951;28;20229;-86
2022/06/09 07:23:11;;;;;;;3.03;0.83;;;16.10;99.90;17.60;96064.00;;;;5033513;28;20216;-85
2022/06/09 07:26:02;;;;;;;0.97;0.83;;;16.10;99.90;17.60;96059.00;;;;5034110;28;20200;-86
2022/06/09 07:28:52;;;;;;;0.63;0.63;;;16.10;99.90;17.60;96073.00;;;;5034387;28;20212;-86
2022/06/09 07:31:42;;;;;;;1.03;1.03;;;16.10;99.90;17.60;96067.00;;;;5028005;28;20209;-87
2022/06/09 07:34:31;;;;;;;1.63;0.80;;;16.10;99.90;17.60;96071.00;;;;5034691;28;21017;-86
2022/06/09 07:37:20;;;;;;;2.37;0.87;;;16.10;99.90;17.60;96072.00;;;;5030011;28;20227;-86
2022/06/09 07:40:10;;;;;;;1.60;0.60;;;16.10;99.90;17.60;96075.00;;;;5035182;28;20590;-85
2022/06/09 07:42:59;;;;;;;0.90;0.60;;;16.10;99.90;17.70;96071.00;;;;5034720;28;20212;-88
2022/06/09 07:45:50;;;;;;;1.77;0.67;;;16.10;99.90;17.70;96068.00;;;;5027551;28;20205;-86
2022/06/09 07:48:39;;;;;;;0.70;0.70;;;16.20;99.90;17.70;96059.00;;;;5029605;28;20300;-86
2022/06/09 07:51:36;;;;;;;2.50;0.70;;;16.20;99.90;17.70;96068.00;;;;5033645;28;20231;-87
2022/06/09 07:54:25;;;;;;;0.70;0.70;;;16.20;99.90;17.80;96077.00;;;;5030940;28;20195;-85
2022/06/09 07:57:14;;;;;;;4.33;0.90;;;16.30;99.90;17.80;96073.00;;;;5028882;28;20596;-85
2022/06/09 08:00:05;;;;;;;2.63;0.70;;;16.30;99.90;17.70;96071.00;;;;5035130;28;20218;-86
2022/06/09 08:02:56;;;;;;;1.70;0.50;;;16.30;99.90;17.70;96078.00;;;;5038899;28;20208;-85
2022/06/09 08:05:46;;;;;;;1.00;0.70;;;16.30;99.90;17.80;96078.00;;;;5031596;28;20201;-84
2022/06/09 08:08:44;;;;;;;0.97;0.60;;;16.30;99.90;17.90;96078.00;;;;5036228;28;20205;-85
2022/06/09 08:11:37;;;;;;;0.70;0.50;;;16.30;99.90;18.00;96078.00;;;;5036546;28;20236;-86
2022/06/09 08:14:26;;;;;;;0.47;0.47;;;16.30;99.90;18.00;96074.00;;;;5036350;28;20213;-85
2022/06/09 08:17:15;;;;;;;0.70;0.70;;;16.30;99.90;17.70;96071.00;;;;5033244;28;20240;-85
2022/06/09 08:20:07;;;;;;;0.57;0.57;;;16.40;99.90;17.90;96068.00;;;;5034286;28;20213;-86
2022/06/09 08:23:02;;;;;;;0.70;0.60;;;16.40;99.90;18.00;96077.00;;;;5033833;28;20201;-85
2022/06/09 08:25:55;;;;;;;1.53;0.70;;;16.40;99.90;18.20;96066.00;;;;5026823;28;20197;-85
2022/06/09 08:28:44;;;;;;;0.93;0.57;;;16.50;99.90;18.30;96072.00;;;;5030914;28;20217;-85
2022/06/09 08:31:33;;;;;;;0.83;0.60;;;16.60;99.90;18.30;96065.00;;;;5027017;28;20202;-85
2022/06/09 08:34:22;;;;;;;0.60;0.50;;;16.60;99.90;18.40;96055.00;;;;5026518;28;20535;-84
2022/06/09 08:37:13;;;;;;;2.10;0.77;;;16.70;99.90;18.40;96062.00;;;;5029570;28;20623;-86
2022/06/09 08:40:02;;;;;;;0.83;0.60;;;16.80;99.90;18.60;96054.00;;;;5034530;28;20233;-86
2022/06/09 08:43:13;;;;;;;2.93;0.80;;;16.80;99.90;18.70;96050.00;;;;5032091;28;20205;-86
2022/06/09 08:46:24;;;;;;;1.30;0.53;;;16.90;99.90;18.90;96060.00;;;;5037845;28;20194;-86
2022/06/09 08:49:37;;;;;;;2.40;0.80;;;17.00;99.90;19.20;96053.00;;;;5033720;28;20224;-86
2022/06/09 08:52:41;;;;;;;0.97;0.53;;;17.20;99.90;19.30;96047.00;;;;5036263;28;20205;-86
2022/06/09 08:55:36;;;;;;;2.07;0.60;;;17.40;99.90;19.80;96046.00;;;;5033979;28;20215;-86
2022/06/09 08:58:41;;;;;;;0.40;0.37;;;17.60;99.90;20.10;96058.00;;;;5036298;28;20693;-88
2022/06/09 09:01:38;;;;;;;0.40;0.30;;;17.80;99.90;20.20;96054.00;;;;5030848;28;20236;-86
2022/06/09 09:04:33;;;;;;;1.40;0.40;;;18.10;99.90;20.10;96057.00;;;;5033916;28;20197;-87
2022/06/09 09:07:30;;;;;;;0.30;0.30;;;18.20;99.90;19.40;96055.00;;;;5028370;28;20209;-85
2022/06/09 09:10:26;;;;;;;0.30;0.30;;;18.20;99.90;20.00;96059.00;;;;5026477;28;20217;-86
2022/06/09 09:13:32;;;;;;;4.00;0.50;;;18.30;99.90;20.20;96057.00;;;;5027873;28;20211;-86
2022/06/09 09:16:29;;;;;;;0.33;0.33;;;18.40;99.90;20.30;96057.00;;;;5031263;28;20201;-86
2022/06/09 09:19:40;;;;;;;0.43;0.40;;;18.50;99.90;20.10;96054.00;;;;5027146;28;20234;-86
2022/06/09 09:22:38;;;;;;;1.07;0.60;;;18.50;99.90;20.30;96053.00;;;;5033320;28;20201;-85
2022/06/09 09:25:42;;;;;;;0.37;0.30;;;18.60;99.90;20.00;96056.00;;;;5027049;28;20205;-86
2022/06/09 09:28:46;;;;;;;0.30;0.30;;;18.50;99.90;20.30;96054.00;;;;5029261;28;20213;-86
2022/06/09 09:31:49;;;;;;;0.30;0.23;;;18.60;99.90;20.20;96054.00;;;;5033282;28;20204;-85
2022/06/09 09:34:42;;;;;;;0.20;0.20;;;18.70;99.90;20.50;96046.00;;;;5031642;28;20194;-87
2022/06/09 09:37:40;;;;;;;0.30;0.30;;;18.70;99.90;20.70;96048.00;;;;5031810;28;20206;-85
2022/06/09 09:40:32;;;;;;;0.73;0.50;;;18.90;99.90;20.90;96046.00;;;;5035292;28;20265;-86
2022/06/09 09:43:24;;;;;;;0.50;0.50;;;19.00;99.90;21.00;96053.00;;;;5035371;28;20599;-86
2022/06/09 09:46:26;;;;;;;0.30;0.30;;;19.10;99.90;20.50;96050.00;;;;5028829;28;20217;-86
2022/06/09 09:49:24;;;;;;;0.30;0.20;;;19.10;99.90;20.80;96062.00;;;;5030128;28;20225;-86
2022/06/09 09:52:41;;;;;;;1.50;0.40;;;19.20;99.90;20.90;96073.00;;;;5029604;28;20197;-86
2022/06/09 09:55:36;;;;;;;1.23;0.37;;;19.20;99.90;20.80;96066.00;;;;5031505;28;20216;-87
2022/06/09 09:58:36;;;;;;;0.87;0.40;;;19.20;99.90;20.90;96075.00;;;;5029145;28;20232;-88
2022/06/09 10:08:35;;;;;;;0.27;0.27;;;19.20;99.90;21.00;96072.00;;;;5027576;28;20239;-86
2022/06/09 10:14:57;;;;;;;1.17;0.63;;;19.50;99.90;21.30;96095.00;;;;5093241;28;20202;-74
2022/06/09 10:18:11;;;;;;;1.83;0.83;;;19.50;99.90;21.30;96101.00;;;;5081161;28;20196;-74
2022/06/09 10:21:18;;;;;;;1.83;0.50;;;19.50;99.90;21.30;96112.00;;;;5078243;28;20200;-75
2022/06/09 10:24:10;;;;;;;0.63;0.40;;;19.50;99.90;21.20;96123.00;;;;5082432;28;20222;-75
2022/06/09 10:27:15;;;;;;;0.27;0.20;;;19.50;99.90;21.20;96115.00;;;;5079969;28;20202;-75
2022/06/09 10:30:12;;;;;;;2.73;0.63;;;19.50;99.90;20.90;96115.00;;;;5084593;28;20250;-74
2022/06/09 10:33:11;;;;;;;0.40;0.20;;;19.50;99.90;21.00;96117.00;;;;5090350;28;20587;-74
2022/06/09 10:36:07;;;;;;;1.10;0.43;;;19.40;99.90;20.80;96119.00;;;;5082483;28;20694;-74
2022/06/09 10:39:04;;;;;;;2.47;0.30;;;19.30;99.90;20.90;96117.00;;;;5087115;28;20735;-75
2022/06/09 10:41:58;;;;;;;0.20;0.17;;;19.30;99.90;20.80;96118.00;;;;5074525;28;20550;-73
2022/06/09 10:44:55;;;;;;;0.27;0.27;;;19.30;99.90;20.90;96104.00;;;;5060402;28;20215;-73
2022/06/09 10:57:36;;;;;;;0.53;0.13;;;19.40;99.90;20.20;96098.00;;;;5083736;28;20219;-72
2022/06/09 11:00:29;;;;;;;0.40;0.20;;;19.30;99.90;20.70;96102.00;;;;5082139;28;20203;-72
2022/06/09 11:03:21;;;;;;;0.40;0.30;;;19.30;99.90;20.50;96113.00;;;;5069980;28;20224;-73
2022/06/09 11:06:37;;;;;;;0.40;0.20;;;19.20;99.90;20.90;96114.00;;;;5086515;28;20202;-73
2022/06/09 11:09:36;;;;;;;0.30;0.20;;;19.20;99.90;20.70;96110.00;;;;5086599;28;20737;-74
2022/06/09 11:12:37;;;;;;;3.20;0.40;;;19.20;99.90;20.80;96123.00;;;;5088804;28;20218;-74
2022/06/09 11:15:36;;;;;;;0.20;0.10;;;19.20;99.90;20.50;96118.00;;;;5095700;22;20231;-67
2022/06/09 11:18:35;;;;;;;0.73;0.30;;;19.10;99.90;20.60;96115.00;;;;5083018;28;20199;-67
2022/06/09 11:21:33;;;;;;;0.40;0.20;;;19.00;99.90;20.60;96117.00;;;;5079288;28;20598;-68
2022/06/09 11:24:33;;;;;;;0.20;0.10;;;19.00;99.90;20.50;96111.00;;;;5075076;28;20725;-68
2022/06/09 11:27:38;;;;;;;0.20;0.10;;;19.00;99.90;20.00;96112.00;;;;5069986;28;20625;-68
2022/06/09 11:30:34;;;;;;;2.73;0.20;;;19.00;99.90;19.80;96111.00;;;;5065684;28;20203;-67
2022/06/09 11:33:41;;;;;;;0.20;0.20;;;18.80;99.90;19.90;96123.00;;;;5068068;28;20211;-67
2022/06/09 11:36:35;;;;;;;0.70;0.10;;;18.70;99.90;19.90;96119.00;;;;5069955;28;20587;-67
2022/06/09 11:39:43;;;;;;;0.20;0.10;;;18.60;99.90;20.00;96116.00;;;;5062363;28;20683;-67
2022/06/09 11:42:53;;;;;;;0.20;0.10;;;18.60;99.90;20.10;96102.00;;;;5070425;28;20215;-67
2022/06/09 11:45:47;;;;;;;0.60;0.20;;;18.60;99.90;20.10;96092.00;;;;5065123;28;20233;-68
2022/06/09 11:48:42;;;;;;;0.37;0.17;;;18.60;99.90;20.40;96099.00;;;;5066436;28;20200;-68
2022/06/09 11:51:36;;;;;;;0.50;0.17;;;18.70;99.90;20.20;96108.00;;;;5068487;28;20192;-67
2022/06/09 11:54:45;;;;;;;0.20;0.10;;;18.70;99.90;20.20;96111.00;;;;5059292;28;20235;-67
2022/06/09 11:57:48;;;;;;;0.50;0.23;;;18.70;99.90;20.30;96118.00;;;;5056682;28;20219;-67
2022/06/09 12:00:41;;;;;;;0.63;0.50;;;18.30;99.90;20.30;96119.00;;;;5063833;28;20196;-67
2022/06/09 12:04:03;;;;;;;0.30;0.20;;;18.80;99.90;19.80;96129.00;;;;5066594;28;20262;-67
2022/06/09 12:07:15;;;;;;;0.53;0.20;;;18.60;99.90;19.80;96125.00;;;;5066434;28;20766;-67
2022/06/09 12:10:33;;;;;;;0.20;0.20;;;18.50;99.90;19.80;96126.00;;;;5065903;28;20200;-67
2022/06/09 12:13:26;;;;;;;0.20;0.20;;;18.40;99.90;19.90;96137.00;;;;5069077;28;20666;-67
2022/06/09 12:16:29;;;;;;;0.20;0.20;;;18.40;99.90;19.70;96127.00;;;;5065326;28;20204;-67
2022/06/09 12:19:22;;;;;;;1.80;0.27;;;18.30;99.90;19.80;96124.00;;;;5065188;28;20218;-67
2022/06/09 12:22:48;;;;;;;0.63;0.20;;;18.30;99.90;19.70;96125.00;;;;5065038;28;20191;-67
2022/06/09 12:25:39;;;;;;;0.50;0.30;;;18.20;99.90;19.70;96127.00;;;;5066559;28;20498;-67
2022/06/09 12:29:00;;;;;;;0.50;0.30;;;18.20;99.90;19.50;96123.00;;;;5060390;28;20687;-67
2022/06/09 12:32:39;;;;;;;0.30;0.20;;;18.20;99.90;19.50;96131.00;;;;5062602;28;20695;-68
2022/06/09 12:35:33;;;;;;;0.30;0.20;;;18.30;99.90;19.40;96133.00;;;;5062078;28;20294;-66
2022/06/09 12:38:29;;;;;;;0.20;0.10;;;18.20;99.90;20.00;96135.00;;;;5060942;28;20579;-68
2022/06/09 12:41:29;;;;;;;0.63;0.40;;;18.30;99.90;19.60;96139.00;;;;5065026;28;20594;-67
2022/06/09 12:44:30;;;;;;;0.20;0.20;;;18.30;99.90;19.70;96131.00;;;;5069591;28;20231;-67
2022/06/09 12:47:23;;;;;;;0.60;0.20;;;18.30;99.90;19.70;96139.00;;;;5069260;28;20218;-67
2022/06/09 12:50:33;;;;;;;0.40;0.30;;;18.40;99.90;20.10;96146.00;;;;5069238;28;20204;-67
2022/06/09 12:53:30;;;;;;;0.20;0.20;;;18.50;99.90;20.30;96140.00;;;;5066993;28;20625;-68
2022/06/09 12:56:28;;;;;;;0.20;0.20;;;18.50;99.90;20.00;96132.00;;;;5054064;28;20212;-67
2022/06/09 12:59:25;;;;;;;0.20;0.10;;;18.60;99.90;20.10;96132.00;;;;5062652;28;20203;-66
2022/06/09 13:02:25;;;;;;;0.20;0.20;;;18.70;99.90;20.30;96122.00;;;;5065638;28;20192;-74
2022/06/09 13:05:22;;;;;;;0.20;0.20;;;18.90;99.90;20.70;96132.00;;;;5065621;28;20220;-68
2022/06/09 13:08:18;;;;;;;0.20;0.10;;;19.10;99.90;21.00;96130.00;;;;5067923;28;20211;-68
2022/06/09 13:11:18;;;;;;;0.20;0.10;;;19.30;99.90;21.40;96136.00;;;;5069289;28;20225;-68
2022/06/09 13:14:09;;;;;;;0.80;0.20;;;19.50;99.90;21.80;96141.00;;;;5070233;28;20239;-68
2022/06/09 13:17:07;;;;;;;0.20;0.10;;;19.70;99.90;21.20;96129.00;;;;5067927;28;20584;-68
2022/06/09 13:20:02;;;;;;;0.40;0.20;;;19.80;99.90;20.40;96131.00;;;;5066048;28;20207;-66
2022/06/09 13:22:53;;;;;;;0.20;0.10;;;19.80;99.90;21.50;96115.00;;;;5066005;28;20200;-67
2022/06/09 13:25:45;;;;;;;0.30;0.10;;;19.90;99.90;20.70;96099.00;;;;5055066;28;20235;-68
2022/06/09 13:28:41;;;;;;;0.20;0.20;;;19.80;99.90;21.20;96118.00;;;;5057182;28;20216;-68